sensor_id;sensor_type;location;lat;lon;timestamp;temperature;humidity
71291;DHT22;59073;51.994;4.448;2022-11-20T00:00:53;0.71;76.26
71291;DHT22;59073;51.994;4.448;2022-11-20T00:03:18;0.71;76.49
71291;DHT22;59073;51.994;4.448;2022-11-20T00:05:44;0.67;76.12
71291;DHT22;59073;51.994;4.448;2022-11-20T00:08:11;0.70;76.24
71291;DHT22;59073;51.994;4.448;2022-11-20T00:10:38;0.87;75.82
71291;DHT22;59073;51.994;4.448;2022-11-20T00:13:05;0.88;75.70
71291;DHT22;59073;51.994;4.448;2022-11-20T00:15:30;0.84;75.89
71291;DHT22;59073;51.994;4.448;2022-11-20T00:17:56;0.66;76.82
71291;DHT22;59073;51.994;4.448;2022-11-20T00:20:21;0.70;77.45
71291;DHT22;59073;51.994;4.448;2022-11-20T00:22:47;0.81;77.17
71291;DHT22;59073;51.994;4.448;2022-11-20T00:25:13;0.81;76.55
71291;DHT22;59073;51.994;4.448;2022-11-20T00:27:38;0.66;76.38
71291;DHT22;59073;51.994;4.448;2022-11-20T00:30:05;0.59;76.47
71291;DHT22;59073;51.994;4.448;2022-11-20T00:32:30;0.67;76.54
71291;DHT22;59073;51.994;4.448;2022-11-20T00:34:56;0.84;76.02
71291;DHT22;59073;51.994;4.448;2022-11-20T00:37:21;0.92;75.98
71291;DHT22;59073;51.994;4.448;2022-11-20T00:39:46;0.78;76.46
71291;DHT22;59073;51.994;4.448;2022-11-20T00:42:12;0.60;77.32
71291;DHT22;59073;51.994;4.448;2022-11-20T00:44:37;0.56;77.46
71291;DHT22;59073;51.994;4.448;2022-11-20T00:47:03;0.67;77.35
71291;DHT22;59073;51.994;4.448;2022-11-20T00:49:28;0.64;76.69
71291;DHT22;59073;51.994;4.448;2022-11-20T00:51:54;0.69;76.38
71291;DHT22;59073;51.994;4.448;2022-11-20T00:54:19;0.67;75.87
71291;DHT22;59073;51.994;4.448;2022-11-20T00:56:44;0.53;76.46
71291;DHT22;59073;51.994;4.448;2022-11-20T00:59:10;0.40;77.04
71291;DHT22;59073;51.994;4.448;2022-11-20T01:01:36;0.35;77.58
71291;DHT22;59073;51.994;4.448;2022-11-20T01:04:02;0.46;77.54
71291;DHT22;59073;51.994;4.448;2022-11-20T01:06:37;0.46;77.37
71291;DHT22;59073;51.994;4.448;2022-11-20T01:09:07;0.54;76.79
71291;DHT22;59073;51.994;4.448;2022-11-20T01:11:40;0.47;76.20
71291;DHT22;59073;51.994;4.448;2022-11-20T01:14:10;0.38;77.18
71291;DHT22;59073;51.994;4.448;2022-11-20T01:16:39;0.18;78.51
71291;DHT22;59073;51.994;4.448;2022-11-20T01:19:10;-0.23;81.41
71291;DHT22;59073;51.994;4.448;2022-11-20T01:21:38;-0.39;82.20
71291;DHT22;59073;51.994;4.448;2022-11-20T01:24:06;-0.09;81.30
71291;DHT22;59073;51.994;4.448;2022-11-20T01:26:35;0.08;79.69
71291;DHT22;59073;51.994;4.448;2022-11-20T01:29:02;0.26;78.93
71291;DHT22;59073;51.994;4.448;2022-11-20T01:31:30;0.32;78.27
71291;DHT22;59073;51.994;4.448;2022-11-20T01:33:58;-0.01;74.15
71291;DHT22;59073;51.994;4.448;2022-11-20T01:36:28;-0.52;73.64
71291;DHT22;59073;51.994;4.448;2022-11-20T01:38:55;-0.53;75.73
71291;DHT22;59073;51.994;4.448;2022-11-20T01:41:22;-0.60;76.51
71291;DHT22;59073;51.994;4.448;2022-11-20T01:44:09;-0.56;77.88
71291;DHT22;59073;51.994;4.448;2022-11-20T01:46:38;-0.50;78.32
71291;DHT22;59073;51.994;4.448;2022-11-20T01:51:39;-0.21;77.84
71291;DHT22;59073;51.994;4.448;2022-11-20T01:54:12;-0.21;77.50
71291;DHT22;59073;51.994;4.448;2022-11-20T01:56:44;-0.34;77.70
71291;DHT22;59073;51.994;4.448;2022-11-20T01:59:15;-0.42;78.98
71291;DHT22;59073;51.994;4.448;2022-11-20T02:01:41;-0.53;78.49
71291;DHT22;59073;51.994;4.448;2022-11-20T02:04:08;-0.59;78.92
71291;DHT22;59073;51.994;4.448;2022-11-20T02:06:42;-0.53;79.50
71291;DHT22;59073;51.994;4.448;2022-11-20T02:09:07;-0.39;79.63
71291;DHT22;59073;51.994;4.448;2022-11-20T02:11:33;-0.42;79.19
71291;DHT22;59073;51.994;4.448;2022-11-20T02:13:59;-0.40;79.32
71291;DHT22;59073;51.994;4.448;2022-11-20T02:16:28;-0.43;79.31
71291;DHT22;59073;51.994;4.448;2022-11-20T02:18:57;-0.56;79.08
71291;DHT22;59073;51.994;4.448;2022-11-20T02:21:34;-0.50;80.04
71291;DHT22;59073;51.994;4.448;2022-11-20T02:26:32;-0.15;79.01
71291;DHT22;59073;51.994;4.448;2022-11-20T02:29:00;-0.06;79.11
71291;DHT22;59073;51.994;4.448;2022-11-20T02:31:26;0.02;78.57
71291;DHT22;59073;51.994;4.448;2022-11-20T02:33:56;0.10;78.54
71291;DHT22;59073;51.994;4.448;2022-11-20T02:36:26;0.16;77.81
71291;DHT22;59073;51.994;4.448;2022-11-20T02:38:52;0.15;77.83
71291;DHT22;59073;51.994;4.448;2022-11-20T02:41:17;0.16;77.80
71291;DHT22;59073;51.994;4.448;2022-11-20T02:43:43;-0.18;79.31
71291;DHT22;59073;51.994;4.448;2022-11-20T02:46:17;-0.48;80.84
71291;DHT22;59073;51.994;4.448;2022-11-20T02:49:03;-0.67;82.36
71291;DHT22;59073;51.994;4.448;2022-11-20T02:51:41;-0.62;82.46
71291;DHT22;59073;51.994;4.448;2022-11-20T02:54:09;-0.33;81.13
71291;DHT22;59073;51.994;4.448;2022-11-20T02:56:55;-0.13;79.85
71291;DHT22;59073;51.994;4.448;2022-11-20T02:59:41;-0.05;79.46
71291;DHT22;59073;51.994;4.448;2022-11-20T03:02:15;-0.03;79.13
71291;DHT22;59073;51.994;4.448;2022-11-20T03:04:44;0.03;78.76
71291;DHT22;59073;51.994;4.448;2022-11-20T03:07:09;0.01;78.43
71291;DHT22;59073;51.994;4.448;2022-11-20T03:09:35;-0.21;79.95
71291;DHT22;59073;51.994;4.448;2022-11-20T03:12:29;-0.44;80.64
71291;DHT22;59073;51.994;4.448;2022-11-20T03:15:05;-0.43;81.07
71291;DHT22;59073;51.994;4.448;2022-11-20T03:17:34;-0.30;80.26
71291;DHT22;59073;51.994;4.448;2022-11-20T03:20:05;-0.32;80.05
71291;DHT22;59073;51.994;4.448;2022-11-20T03:22:46;-0.15;79.91
71291;DHT22;59073;51.994;4.448;2022-11-20T03:25:17;0.06;78.84
71291;DHT22;59073;51.994;4.448;2022-11-20T03:30:34;-0.21;79.60
71291;DHT22;59073;51.994;4.448;2022-11-20T03:33:20;-0.48;79.84
71291;DHT22;59073;51.994;4.448;2022-11-20T03:36:19;-0.34;79.61
71291;DHT22;59073;51.994;4.448;2022-11-20T03:38:50;-0.11;79.13
71291;DHT22;59073;51.994;4.448;2022-11-20T03:41:20;0.12;78.25
71291;DHT22;59073;51.994;4.448;2022-11-20T03:43:53;0.09;77.27
71291;DHT22;59073;51.994;4.448;2022-11-20T03:46:20;-0.08;78.52
71291;DHT22;59073;51.994;4.448;2022-11-20T03:48:46;0.08;78.28
71291;DHT22;59073;51.994;4.448;2022-11-20T03:51:19;0.02;76.48
71291;DHT22;59073;51.994;4.448;2022-11-20T03:53:47;-0.09;76.43
71291;DHT22;59073;51.994;4.448;2022-11-20T03:56:16;-0.01;76.61
71291;DHT22;59073;51.994;4.448;2022-11-20T03:58:50;0.12;76.79
71291;DHT22;59073;51.994;4.448;2022-11-20T04:01:36;-0.08;77.77
71291;DHT22;59073;51.994;4.448;2022-11-20T04:04:13;-0.16;79.18
71291;DHT22;59073;51.994;4.448;2022-11-20T04:06:47;-0.36;79.97
71291;DHT22;59073;51.994;4.448;2022-11-20T04:09:32;-0.34;80.48
71291;DHT22;59073;51.994;4.448;2022-11-20T04:12:12;-0.53;80.41
71291;DHT22;59073;51.994;4.448;2022-11-20T04:14:38;-0.76;81.70
71291;DHT22;59073;51.994;4.448;2022-11-20T04:17:06;-0.77;81.90
71291;DHT22;59073;51.994;4.448;2022-11-20T04:19:44;-0.91;82.14
71291;DHT22;59073;51.994;4.448;2022-11-20T04:25:13;-1.31;83.72
71291;DHT22;59073;51.994;4.448;2022-11-20T04:27:56;-1.12;83.30
71291;DHT22;59073;51.994;4.448;2022-11-20T04:30:32;-1.14;82.70
71291;DHT22;59073;51.994;4.448;2022-11-20T04:33:07;-1.16;83.44
71291;DHT22;59073;51.994;4.448;2022-11-20T04:35:52;-1.28;83.66
71291;DHT22;59073;51.994;4.448;2022-11-20T04:38:26;-1.16;83.60
71291;DHT22;59073;51.994;4.448;2022-11-20T04:44:14;-0.60;81.85
71291;DHT22;59073;51.994;4.448;2022-11-20T04:46:49;-0.46;81.15
71291;DHT22;59073;51.994;4.448;2022-11-20T04:49:28;-0.34;79.86
71291;DHT22;59073;51.994;4.448;2022-11-20T04:52:05;-0.53;80.36
71291;DHT22;59073;51.994;4.448;2022-11-20T04:54:47;-0.66;81.55
71291;DHT22;59073;51.994;4.448;2022-11-20T04:57:19;-0.71;81.80
71291;DHT22;59073;51.994;4.448;2022-11-20T05:00:04;-0.90;82.51
71291;DHT22;59073;51.994;4.448;2022-11-20T05:02:52;-0.77;82.29
71291;DHT22;59073;51.994;4.448;2022-11-20T05:05:23;-0.76;82.56
71291;DHT22;59073;51.994;4.448;2022-11-20T05:07:51;-0.69;82.33
71291;DHT22;59073;51.994;4.448;2022-11-20T05:10:17;-0.39;81.91
71291;DHT22;59073;51.994;4.448;2022-11-20T05:12:44;-0.21;80.60
71291;DHT22;59073;51.994;4.448;2022-11-20T05:15:10;-0.09;79.31
71291;DHT22;59073;51.994;4.448;2022-11-20T05:17:53;-0.13;79.35
71291;DHT22;59073;51.994;4.448;2022-11-20T05:27:32;-0.53;81.33
71291;DHT22;59073;51.994;4.448;2022-11-20T05:36:38;-0.93;83.60
71291;DHT22;59073;51.994;4.448;2022-11-20T05:43:05;-1.11;84.50
71291;DHT22;59073;51.994;4.448;2022-11-20T05:46:02;-1.08;84.79
71291;DHT22;59073;51.994;4.448;2022-11-20T05:48:54;-1.00;84.42
71291;DHT22;59073;51.994;4.448;2022-11-20T05:51:23;-0.98;84.47
71291;DHT22;59073;51.994;4.448;2022-11-20T05:53:49;-1.12;84.94
71291;DHT22;59073;51.994;4.448;2022-11-20T05:56:47;-1.22;85.43
71291;DHT22;59073;51.994;4.448;2022-11-20T05:59:51;-1.35;86.08
71291;DHT22;59073;51.994;4.448;2022-11-20T06:02:26;-1.42;86.84
71291;DHT22;59073;51.994;4.448;2022-11-20T06:05:17;-1.18;86.13
71291;DHT22;59073;51.994;4.448;2022-11-20T06:07:53;-1.32;86.59
71291;DHT22;59073;51.994;4.448;2022-11-20T06:10:34;-1.38;86.81
71291;DHT22;59073;51.994;4.448;2022-11-20T06:13:31;-1.19;86.78
71291;DHT22;59073;51.994;4.448;2022-11-20T06:15:56;-1.15;86.54
71291;DHT22;59073;51.994;4.448;2022-11-20T06:22:14;-1.08;86.08
71291;DHT22;59073;51.994;4.448;2022-11-20T06:25:06;-1.11;86.61
71291;DHT22;59073;51.994;4.448;2022-11-20T06:30:05;-0.85;85.93
71291;DHT22;59073;51.994;4.448;2022-11-20T06:32:30;-0.80;85.43
71291;DHT22;59073;51.994;4.448;2022-11-20T06:34:56;-0.81;85.43
71291;DHT22;59073;51.994;4.448;2022-11-20T06:37:21;-0.85;86.04
71291;DHT22;59073;51.994;4.448;2022-11-20T06:39:46;-0.80;85.98
71291;DHT22;59073;51.994;4.448;2022-11-20T06:42:13;-0.76;85.73
71291;DHT22;59073;51.994;4.448;2022-11-20T06:44:38;-0.71;85.19
71291;DHT22;59073;51.994;4.448;2022-11-20T06:47:04;-0.87;86.04
71291;DHT22;59073;51.994;4.448;2022-11-20T06:49:29;-0.94;86.18
71291;DHT22;59073;51.994;4.448;2022-11-20T06:51:55;-0.91;86.44
71291;DHT22;59073;51.994;4.448;2022-11-20T06:54:20;-0.80;86.84
71291;DHT22;59073;51.994;4.448;2022-11-20T06:56:49;-0.76;86.46
71291;DHT22;59073;51.994;4.448;2022-11-20T06:59:14;-0.59;85.92
71291;DHT22;59073;51.994;4.448;2022-11-20T07:01:40;-0.32;85.45
71291;DHT22;59073;51.994;4.448;2022-11-20T07:04:05;-0.28;84.93
71291;DHT22;59073;51.994;4.448;2022-11-20T07:06:31;-0.15;84.41
71291;DHT22;59073;51.994;4.448;2022-11-20T07:08:57;-0.23;84.55
71291;DHT22;59073;51.994;4.448;2022-11-20T07:11:23;-0.34;85.20
71291;DHT22;59073;51.994;4.448;2022-11-20T07:13:49;-0.46;85.27
71291;DHT22;59073;51.994;4.448;2022-11-20T07:16:15;-0.32;85.31
71291;DHT22;59073;51.994;4.448;2022-11-20T07:18:40;-0.08;84.31
71291;DHT22;59073;51.994;4.448;2022-11-20T07:21:08;0.09;83.70
71291;DHT22;59073;51.994;4.448;2022-11-20T07:23:46;0.12;83.22
71291;DHT22;59073;51.994;4.448;2022-11-20T07:29:49;0.46;82.96
71291;DHT22;59073;51.994;4.448;2022-11-20T07:53:58;0.45;84.49
71291;DHT22;59073;51.994;4.448;2022-11-20T08:03:26;0.39;85.52
71291;DHT22;59073;51.994;4.448;2022-11-20T08:05:58;0.42;86.03
71291;DHT22;59073;51.994;4.448;2022-11-20T08:12:00;0.32;86.68
71291;DHT22;59073;51.994;4.448;2022-11-20T08:21:57;0.45;87.11
71291;DHT22;59073;51.994;4.448;2022-11-20T08:24:43;0.69;85.83
71291;DHT22;59073;51.994;4.448;2022-11-20T08:32:46;0.90;85.53
71291;DHT22;59073;51.994;4.448;2022-11-20T11:47:15;3.45;87.76
71291;DHT22;59073;51.994;4.448;2022-11-20T11:50:16;3.44;87.51
71291;DHT22;59073;51.994;4.448;2022-11-20T11:56:28;3.54;87.08
71291;DHT22;59073;51.994;4.448;2022-11-20T12:19:48;4.07;87.44
71291;DHT22;59073;51.994;4.448;2022-11-20T12:22:43;4.06;86.91
71291;DHT22;59073;51.994;4.448;2022-11-20T12:25:40;4.10;86.97
71291;DHT22;59073;51.994;4.448;2022-11-20T12:56:51;3.91;88.85
71291;DHT22;59073;51.994;4.448;2022-11-20T13:00:25;3.93;88.95
71291;DHT22;59073;51.994;4.448;2022-11-20T13:07:12;4.02;88.88
71291;DHT22;59073;51.994;4.448;2022-11-20T13:10:03;3.95;88.71
71291;DHT22;59073;51.994;4.448;2022-11-20T13:23:02;3.98;89.85
71291;DHT22;59073;51.994;4.448;2022-11-20T13:25:41;3.92;90.02
71291;DHT22;59073;51.994;4.448;2022-11-20T13:28:35;3.91;90.13
71291;DHT22;59073;51.994;4.448;2022-11-20T13:34:51;3.95;90.62
71291;DHT22;59073;51.994;4.448;2022-11-20T13:38:27;3.84;90.88
71291;DHT22;59073;51.994;4.448;2022-11-20T20:21:57;6.48;83.98
71291;DHT22;59073;51.994;4.448;2022-11-20T20:24:43;6.55;83.75
71291;DHT22;59073;51.994;4.448;2022-11-20T20:27:08;6.32;82.80
71291;DHT22;59073;51.994;4.448;2022-11-20T20:29:37;5.69;84.41
71291;DHT22;59073;51.994;4.448;2022-11-20T20:32:02;5.56;85.42
71291;DHT22;59073;51.994;4.448;2022-11-20T20:34:28;5.50;85.33
71291;DHT22;59073;51.994;4.448;2022-11-20T20:37:01;5.42;85.56
71291;DHT22;59073;51.994;4.448;2022-11-20T20:39:29;5.22;86.10
71291;DHT22;59073;51.994;4.448;2022-11-20T20:41:55;4.95;87.88
71291;DHT22;59073;51.994;4.448;2022-11-20T20:44:20;4.71;89.15
71291;DHT22;59073;51.994;4.448;2022-11-20T20:47:04;4.63;89.60
71291;DHT22;59073;51.994;4.448;2022-11-20T20:49:32;4.40;90.37
71291;DHT22;59073;51.994;4.448;2022-11-20T20:51:57;4.56;90.60
71291;DHT22;59073;51.994;4.448;2022-11-20T20:54:23;4.46;90.68
71291;DHT22;59073;51.994;4.448;2022-11-20T20:56:50;4.60;90.90
71291;DHT22;59073;51.994;4.448;2022-11-20T20:59:15;5.02;89.72
71291;DHT22;59073;51.994;4.448;2022-11-20T21:01:41;4.99;90.50
71291;DHT22;59073;51.994;4.448;2022-11-20T21:04:06;5.74;90.89
71291;DHT22;59073;51.994;4.448;2022-11-20T21:06:31;6.08;89.50
71291;DHT22;59073;51.994;4.448;2022-11-20T21:08:57;6.36;88.93
71291;DHT22;59073;51.994;4.448;2022-11-20T21:11:23;6.56;88.14
71291;DHT22;59073;51.994;4.448;2022-11-20T21:13:48;6.69;87.25
71291;DHT22;59073;51.994;4.448;2022-11-20T21:16:16;6.59;87.50
71291;DHT22;59073;51.994;4.448;2022-11-20T21:18:42;6.97;88.69
71291;DHT22;59073;51.994;4.448;2022-11-20T21:21:10;7.38;88.27
71291;DHT22;59073;51.994;4.448;2022-11-20T21:23:54;7.71;87.85
71291;DHT22;59073;51.994;4.448;2022-11-20T21:26:20;7.95;87.28
71291;DHT22;59073;51.994;4.448;2022-11-20T21:28:46;8.10;86.84
71291;DHT22;59073;51.994;4.448;2022-11-20T21:31:14;8.07;83.04
71291;DHT22;59073;51.994;4.448;2022-11-20T21:33:47;7.03;82.21
71291;DHT22;59073;51.994;4.448;2022-11-20T21:36:21;6.53;84.32
71291;DHT22;59073;51.994;4.448;2022-11-20T21:38:47;6.35;85.68
71291;DHT22;59073;51.994;4.448;2022-11-20T21:41:15;6.55;87.88
71291;DHT22;59073;51.994;4.448;2022-11-20T21:43:41;6.71;85.84
71291;DHT22;59073;51.994;4.448;2022-11-20T21:46:13;7.21;85.04
71291;DHT22;59073;51.994;4.448;2022-11-20T21:48:41;7.18;84.98
71291;DHT22;59073;51.994;4.448;2022-11-20T21:51:14;7.48;84.70
71291;DHT22;59073;51.994;4.448;2022-11-20T21:53:41;7.71;83.92
71291;DHT22;59073;51.994;4.448;2022-11-20T21:56:08;7.74;83.97
71291;DHT22;59073;51.994;4.448;2022-11-20T21:58:36;7.92;82.93
71291;DHT22;59073;51.994;4.448;2022-11-20T22:01:10;8.05;83.28
71291;DHT22;59073;51.994;4.448;2022-11-20T22:03:36;8.16;83.17
71291;DHT22;59073;51.994;4.448;2022-11-20T22:06:03;8.20;83.20
71291;DHT22;59073;51.994;4.448;2022-11-20T22:08:28;8.29;82.96
71291;DHT22;59073;51.994;4.448;2022-11-20T22:11:06;8.39;83.00
71291;DHT22;59073;51.994;4.448;2022-11-20T22:13:32;8.53;83.21
71291;DHT22;59073;51.994;4.448;2022-11-20T22:16:16;8.19;80.80
71291;DHT22;59073;51.994;4.448;2022-11-20T22:18:43;7.65;80.74
71291;DHT22;59073;51.994;4.448;2022-11-20T22:21:12;7.21;81.39
71291;DHT22;59073;51.994;4.448;2022-11-20T22:23:38;6.80;82.70
71291;DHT22;59073;51.994;4.448;2022-11-20T22:26:12;6.52;83.72
